sensor_id;sensor_type;location;lat;lon;timestamp;P1;durP1;ratioP1;P2;durP2;ratioP2
40621;SDS011;26324;52.040;11.528;2023-05-10T00:01:52;3.67;;;1.98;;
40621;SDS011;26324;52.040;11.528;2023-05-10T00:04:19;3.22;;;1.88;;
40621;SDS011;26324;52.040;11.528;2023-05-10T00:06:47;5.32;;;2.20;;
40621;SDS011;26324;52.040;11.528;2023-05-10T00:09:14;4.05;;;2.22;;
40621;SDS011;26324;52.040;11.528;2023-05-10T00:11:42;3.08;;;1.98;;
40621;SDS011;26324;52.040;11.528;2023-05-10T00:14:09;3.75;;;2.17;;
40621;SDS011;26324;52.040;11.528;2023-05-10T00:16:36;3.90;;;1.92;;
40621;SDS011;26324;52.040;11.528;2023-05-10T00:19:04;3.25;;;1.65;;
40621;SDS011;26324;52.040;11.528;2023-05-10T00:21:31;3.45;;;2.15;;
40621;SDS011;26324;52.040;11.528;2023-05-10T00:26:27;3.88;;;2.03;;
40621;SDS011;26324;52.040;11.528;2023-05-10T00:28:55;3.42;;;1.98;;
40621;SDS011;26324;52.040;11.528;2023-05-10T00:31:23;3.10;;;2.00;;
40621;SDS011;26324;52.040;11.528;2023-05-10T00:33:51;2.38;;;1.42;;
40621;SDS011;26324;52.040;11.528;2023-05-10T00:36:18;2.72;;;1.92;;
40621;SDS011;26324;52.040;11.528;2023-05-10T00:38:46;2.65;;;1.83;;
40621;SDS011;26324;52.040;11.528;2023-05-10T00:41:13;3.92;;;1.77;;
40621;SDS011;26324;52.040;11.528;2023-05-10T00:43:41;5.28;;;2.28;;
40621;SDS011;26324;52.040;11.528;2023-05-10T00:46:08;4.13;;;2.03;;
40621;SDS011;26324;52.040;11.528;2023-05-10T00:48:35;4.70;;;2.40;;
40621;SDS011;26324;52.040;11.528;2023-05-10T00:51:03;3.00;;;2.00;;
40621;SDS011;26324;52.040;11.528;2023-05-10T00:53:30;2.97;;;1.95;;
40621;SDS011;26324;52.040;11.528;2023-05-10T00:55:59;4.80;;;2.38;;
40621;SDS011;26324;52.040;11.528;2023-05-10T00:58:27;4.68;;;2.15;;
40621;SDS011;26324;52.040;11.528;2023-05-10T01:00:55;3.63;;;2.00;;
40621;SDS011;26324;52.040;11.528;2023-05-10T01:03:25;3.65;;;2.13;;
40621;SDS011;26324;52.040;11.528;2023-05-10T01:05:53;3.35;;;2.08;;
40621;SDS011;26324;52.040;11.528;2023-05-10T01:08:20;3.28;;;2.17;;
40621;SDS011;26324;52.040;11.528;2023-05-10T01:10:48;2.85;;;1.77;;
40621;SDS011;26324;52.040;11.528;2023-05-10T01:13:36;5.03;;;1.90;;
40621;SDS011;26324;52.040;11.528;2023-05-10T01:16:04;3.67;;;2.17;;
40621;SDS011;26324;52.040;11.528;2023-05-10T01:18:38;4.35;;;2.00;;
40621;SDS011;26324;52.040;11.528;2023-05-10T01:21:17;3.05;;;2.10;;
40621;SDS011;26324;52.040;11.528;2023-05-10T01:29:52;4.40;;;2.25;;
40621;SDS011;26324;52.040;11.528;2023-05-10T01:35:41;4.03;;;2.25;;
40621;SDS011;26324;52.040;11.528;2023-05-10T01:38:17;3.08;;;1.70;;
40621;SDS011;26324;52.040;11.528;2023-05-10T01:41:33;3.92;;;2.10;;
40621;SDS011;26324;52.040;11.528;2023-05-10T01:43:47;2.95;;;2.28;;
40621;SDS011;26324;52.040;11.528;2023-05-10T01:46:24;3.45;;;2.10;;
40621;SDS011;26324;52.040;11.528;2023-05-10T01:48:58;3.47;;;2.30;;
40621;SDS011;26324;52.040;11.528;2023-05-10T01:51:29;3.65;;;2.05;;
40621;SDS011;26324;52.040;11.528;2023-05-10T01:54:03;5.15;;;1.90;;
40621;SDS011;26324;52.040;11.528;2023-05-10T01:56:33;6.63;;;2.28;;
40621;SDS011;26324;52.040;11.528;2023-05-10T01:59:03;3.78;;;2.22;;
40621;SDS011;26324;52.040;11.528;2023-05-10T02:01:35;3.90;;;2.28;;
40621;SDS011;26324;52.040;11.528;2023-05-10T02:04:04;3.50;;;1.90;;
40621;SDS011;26324;52.040;11.528;2023-05-10T02:06:36;5.65;;;2.67;;
40621;SDS011;26324;52.040;11.528;2023-05-10T02:09:06;6.65;;;2.38;;
40621;SDS011;26324;52.040;11.528;2023-05-10T02:11:34;4.45;;;1.90;;
40621;SDS011;26324;52.040;11.528;2023-05-10T02:14:05;3.38;;;2.22;;
40621;SDS011;26324;52.040;11.528;2023-05-10T02:16:36;4.53;;;2.10;;
40621;SDS011;26324;52.040;11.528;2023-05-10T02:19:05;3.67;;;2.08;;
40621;SDS011;26324;52.040;11.528;2023-05-10T02:21:35;2.95;;;2.03;;
40621;SDS011;26324;52.040;11.528;2023-05-10T02:24:05;3.47;;;2.20;;
40621;SDS011;26324;52.040;11.528;2023-05-10T02:26:33;3.88;;;2.15;;
40621;SDS011;26324;52.040;11.528;2023-05-10T02:29:02;7.15;;;2.58;;
40621;SDS011;26324;52.040;11.528;2023-05-10T02:31:31;2.95;;;2.03;;
40621;SDS011;26324;52.040;11.528;2023-05-10T02:34:00;4.13;;;2.20;;
40621;SDS011;26324;52.040;11.528;2023-05-10T02:38:56;4.72;;;1.95;;
40621;SDS011;26324;52.040;11.528;2023-05-10T02:41:26;3.63;;;1.75;;
40621;SDS011;26324;52.040;11.528;2023-05-10T02:43:55;3.70;;;2.08;;
40621;SDS011;26324;52.040;11.528;2023-05-10T02:46:26;2.90;;;1.75;;
40621;SDS011;26324;52.040;11.528;2023-05-10T02:48:55;4.28;;;1.88;;
40621;SDS011;26324;52.040;11.528;2023-05-10T02:51:24;4.45;;;2.00;;
40621;SDS011;26324;52.040;11.528;2023-05-10T02:53:54;3.05;;;2.05;;
40621;SDS011;26324;52.040;11.528;2023-05-10T02:56:28;3.05;;;1.92;;
40621;SDS011;26324;52.040;11.528;2023-05-10T02:59:00;5.50;;;2.42;;
40621;SDS011;26324;52.040;11.528;2023-05-10T03:01:27;2.80;;;2.20;;
40621;SDS011;26324;52.040;11.528;2023-05-10T03:03:54;3.47;;;1.85;;
40621;SDS011;26324;52.040;11.528;2023-05-10T03:06:22;3.78;;;2.42;;
40621;SDS011;26324;52.040;11.528;2023-05-10T03:08:49;3.25;;;1.73;;
40621;SDS011;26324;52.040;11.528;2023-05-10T03:16:55;2.75;;;1.88;;
40621;SDS011;26324;52.040;11.528;2023-05-10T03:19:29;4.68;;;2.15;;
40621;SDS011;26324;52.040;11.528;2023-05-10T03:22:02;4.55;;;2.00;;
40621;SDS011;26324;52.040;11.528;2023-05-10T03:24:35;3.22;;;1.90;;
40621;SDS011;26324;52.040;11.528;2023-05-10T03:27:03;4.10;;;1.88;;
40621;SDS011;26324;52.040;11.528;2023-05-10T03:29:31;2.33;;;1.77;;
40621;SDS011;26324;52.040;11.528;2023-05-10T03:31:59;4.13;;;2.20;;
40621;SDS011;26324;52.040;11.528;2023-05-10T03:34:29;3.63;;;2.08;;
40621;SDS011;26324;52.040;11.528;2023-05-10T03:36:58;3.97;;;2.22;;
40621;SDS011;26324;52.040;11.528;2023-05-10T03:39:29;4.40;;;2.03;;
40621;SDS011;26324;52.040;11.528;2023-05-10T03:41:58;3.17;;;2.00;;
40621;SDS011;26324;52.040;11.528;2023-05-10T03:44:26;3.20;;;2.28;;
40621;SDS011;26324;52.040;11.528;2023-05-10T03:46:54;3.92;;;2.00;;
40621;SDS011;26324;52.040;11.528;2023-05-10T03:49:22;3.10;;;2.20;;
40621;SDS011;26324;52.040;11.528;2023-05-10T03:51:49;2.72;;;2.10;;
40621;SDS011;26324;52.040;11.528;2023-05-10T03:54:17;3.10;;;1.70;;
40621;SDS011;26324;52.040;11.528;2023-05-10T03:56:44;4.07;;;2.58;;
40621;SDS011;26324;52.040;11.528;2023-05-10T03:59:11;2.92;;;1.92;;
40621;SDS011;26324;52.040;11.528;2023-05-10T04:01:39;4.70;;;2.35;;
40621;SDS011;26324;52.040;11.528;2023-05-10T04:04:08;4.47;;;2.10;;
40621;SDS011;26324;52.040;11.528;2023-05-10T04:06:35;5.43;;;2.20;;
40621;SDS011;26324;52.040;11.528;2023-05-10T04:09:04;3.95;;;2.28;;
40621;SDS011;26324;52.040;11.528;2023-05-10T04:11:32;4.55;;;2.20;;
40621;SDS011;26324;52.040;11.528;2023-05-10T04:14:07;3.58;;;2.22;;
40621;SDS011;26324;52.040;11.528;2023-05-10T04:16:34;4.50;;;2.22;;
40621;SDS011;26324;52.040;11.528;2023-05-10T04:19:01;3.95;;;1.92;;
40621;SDS011;26324;52.040;11.528;2023-05-10T04:21:29;3.92;;;2.30;;
40621;SDS011;26324;52.040;11.528;2023-05-10T04:23:57;3.35;;;2.20;;
40621;SDS011;26324;52.040;11.528;2023-05-10T04:26:24;5.75;;;2.40;;
40621;SDS011;26324;52.040;11.528;2023-05-10T04:28:52;3.30;;;1.98;;
40621;SDS011;26324;52.040;11.528;2023-05-10T04:31:19;3.80;;;2.08;;
40621;SDS011;26324;52.040;11.528;2023-05-10T04:33:47;4.45;;;2.38;;
40621;SDS011;26324;52.040;11.528;2023-05-10T04:36:14;3.67;;;1.42;;
40621;SDS011;26324;52.040;11.528;2023-05-10T04:38:41;3.53;;;1.75;;
40621;SDS011;26324;52.040;11.528;2023-05-10T04:41:10;3.53;;;2.10;;
40621;SDS011;26324;52.040;11.528;2023-05-10T04:43:37;3.38;;;1.85;;
40621;SDS011;26324;52.040;11.528;2023-05-10T04:46:05;3.80;;;2.15;;
40621;SDS011;26324;52.040;11.528;2023-05-10T04:51:01;3.53;;;1.92;;
40621;SDS011;26324;52.040;11.528;2023-05-10T04:53:30;2.95;;;2.20;;
40621;SDS011;26324;52.040;11.528;2023-05-10T04:55:58;6.78;;;2.63;;
40621;SDS011;26324;52.040;11.528;2023-05-10T04:58:25;4.22;;;1.92;;
40621;SDS011;26324;52.040;11.528;2023-05-10T05:00:52;4.10;;;1.85;;
40621;SDS011;26324;52.040;11.528;2023-05-10T05:03:20;4.38;;;1.75;;
40621;SDS011;26324;52.040;11.528;2023-05-10T05:05:47;3.55;;;2.03;;
40621;SDS011;26324;52.040;11.528;2023-05-10T05:08:15;4.07;;;2.35;;
40621;SDS011;26324;52.040;11.528;2023-05-10T05:10:42;3.75;;;1.67;;
40621;SDS011;26324;52.040;11.528;2023-05-10T05:13:09;3.58;;;2.38;;
40621;SDS011;26324;52.040;11.528;2023-05-10T05:15:39;4.57;;;2.58;;
40621;SDS011;26324;52.040;11.528;2023-05-10T05:18:06;3.75;;;2.28;;
40621;SDS011;26324;52.040;11.528;2023-05-10T05:20:34;3.38;;;1.95;;
40621;SDS011;26324;52.040;11.528;2023-05-10T05:23:01;3.28;;;2.00;;
40621;SDS011;26324;52.040;11.528;2023-05-10T05:25:30;5.07;;;2.17;;
40621;SDS011;26324;52.040;11.528;2023-05-10T05:27:57;4.85;;;2.28;;
40621;SDS011;26324;52.040;11.528;2023-05-10T05:30:24;3.80;;;2.30;;
40621;SDS011;26324;52.040;11.528;2023-05-10T05:32:51;5.53;;;2.58;;
40621;SDS011;26324;52.040;11.528;2023-05-10T05:35:19;4.57;;;2.30;;
40621;SDS011;26324;52.040;11.528;2023-05-10T05:37:46;3.25;;;1.77;;
40621;SDS011;26324;52.040;11.528;2023-05-10T05:40:14;4.88;;;2.42;;
40621;SDS011;26324;52.040;11.528;2023-05-10T05:42:41;3.05;;;1.77;;
40621;SDS011;26324;52.040;11.528;2023-05-10T05:45:09;4.00;;;2.10;;
40621;SDS011;26324;52.040;11.528;2023-05-10T05:47:57;2.75;;;1.65;;
40621;SDS011;26324;52.040;11.528;2023-05-10T05:50:25;3.45;;;2.40;;
40621;SDS011;26324;52.040;11.528;2023-05-10T05:52:53;3.42;;;2.10;;
40621;SDS011;26324;52.040;11.528;2023-05-10T05:55:21;2.42;;;1.80;;
40621;SDS011;26324;52.040;11.528;2023-05-10T05:57:51;4.00;;;2.20;;
40621;SDS011;26324;52.040;11.528;2023-05-10T06:00:19;3.10;;;2.42;;
40621;SDS011;26324;52.040;11.528;2023-05-10T06:02:51;2.40;;;2.03;;
40621;SDS011;26324;52.040;11.528;2023-05-10T06:05:20;3.08;;;2.20;;
40621;SDS011;26324;52.040;11.528;2023-05-10T06:07:51;4.35;;;2.55;;
40621;SDS011;26324;52.040;11.528;2023-05-10T06:10:20;5.55;;;2.45;;
40621;SDS011;26324;52.040;11.528;2023-05-10T06:12:49;6.47;;;2.40;;
40621;SDS011;26324;52.040;11.528;2023-05-10T06:15:20;4.68;;;2.78;;
40621;SDS011;26324;52.040;11.528;2023-05-10T06:17:48;4.03;;;2.22;;
40621;SDS011;26324;52.040;11.528;2023-05-10T06:20:20;4.50;;;2.35;;
40621;SDS011;26324;52.040;11.528;2023-05-10T06:22:48;3.47;;;2.17;;
40621;SDS011;26324;52.040;11.528;2023-05-10T06:25:15;4.28;;;2.25;;
40621;SDS011;26324;52.040;11.528;2023-05-10T06:27:45;5.05;;;2.25;;
40621;SDS011;26324;52.040;11.528;2023-05-10T06:30:21;5.25;;;2.20;;
40621;SDS011;26324;52.040;11.528;2023-05-10T06:32:54;5.80;;;2.15;;
40621;SDS011;26324;52.040;11.528;2023-05-10T06:35:21;4.88;;;2.45;;
40621;SDS011;26324;52.040;11.528;2023-05-10T06:37:49;5.85;;;2.65;;
40621;SDS011;26324;52.040;11.528;2023-05-10T06:40:17;6.47;;;2.58;;
40621;SDS011;26324;52.040;11.528;2023-05-10T06:42:45;3.78;;;2.28;;
40621;SDS011;26324;52.040;11.528;2023-05-10T06:45:13;3.15;;;2.00;;
40621;SDS011;26324;52.040;11.528;2023-05-10T06:47:42;3.35;;;2.05;;
40621;SDS011;26324;52.040;11.528;2023-05-10T06:50:09;3.33;;;2.28;;
40621;SDS011;26324;52.040;11.528;2023-05-10T06:52:38;4.68;;;2.55;;
40621;SDS011;26324;52.040;11.528;2023-05-10T06:55:06;4.72;;;2.38;;
40621;SDS011;26324;52.040;11.528;2023-05-10T06:57:34;2.92;;;2.50;;
40621;SDS011;26324;52.040;11.528;2023-05-10T07:00:02;5.38;;;2.53;;
40621;SDS011;26324;52.040;11.528;2023-05-10T07:02:31;4.55;;;2.80;;
40621;SDS011;26324;52.040;11.528;2023-05-10T07:04:59;5.35;;;2.45;;
40621;SDS011;26324;52.040;11.528;2023-05-10T07:07:29;4.30;;;2.50;;
40621;SDS011;26324;52.040;11.528;2023-05-10T07:09:56;4.90;;;2.67;;
40621;SDS011;26324;52.040;11.528;2023-05-10T07:12:24;3.53;;;2.60;;
40621;SDS011;26324;52.040;11.528;2023-05-10T07:14:52;4.30;;;2.47;;
40621;SDS011;26324;52.040;11.528;2023-05-10T07:17:19;3.83;;;2.20;;
40621;SDS011;26324;52.040;11.528;2023-05-10T07:19:46;5.05;;;2.60;;
40621;SDS011;26324;52.040;11.528;2023-05-10T07:22:14;4.18;;;2.38;;
40621;SDS011;26324;52.040;11.528;2023-05-10T07:24:43;7.25;;;2.45;;
40621;SDS011;26324;52.040;11.528;2023-05-10T07:27:10;3.65;;;2.45;;
40621;SDS011;26324;52.040;11.528;2023-05-10T07:29:38;4.13;;;2.45;;
40621;SDS011;26324;52.040;11.528;2023-05-10T07:32:05;5.20;;;2.33;;
40621;SDS011;26324;52.040;11.528;2023-05-10T07:34:32;4.30;;;2.17;;
40621;SDS011;26324;52.040;11.528;2023-05-10T07:37:00;4.45;;;2.40;;
40621;SDS011;26324;52.040;11.528;2023-05-10T07:39:27;3.75;;;2.53;;
40621;SDS011;26324;52.040;11.528;2023-05-10T07:41:55;5.10;;;2.60;;
40621;SDS011;26324;52.040;11.528;2023-05-10T07:44:22;4.28;;;2.58;;
40621;SDS011;26324;52.040;11.528;2023-05-10T07:46:49;6.40;;;2.83;;
40621;SDS011;26324;52.040;11.528;2023-05-10T07:49:17;5.65;;;2.60;;
40621;SDS011;26324;52.040;11.528;2023-05-10T07:51:44;5.05;;;2.67;;
40621;SDS011;26324;52.040;11.528;2023-05-10T07:54:12;3.85;;;2.38;;
40621;SDS011;26324;52.040;11.528;2023-05-10T07:56:39;4.78;;;2.88;;
40621;SDS011;26324;52.040;11.528;2023-05-10T07:59:14;3.63;;;2.42;;
40621;SDS011;26324;52.040;11.528;2023-05-10T08:01:42;5.03;;;2.70;;
40621;SDS011;26324;52.040;11.528;2023-05-10T08:04:09;5.32;;;2.75;;
40621;SDS011;26324;52.040;11.528;2023-05-10T08:06:38;5.03;;;2.67;;
40621;SDS011;26324;52.040;11.528;2023-05-10T08:09:06;4.18;;;2.40;;
40621;SDS011;26324;52.040;11.528;2023-05-10T08:11:34;6.55;;;2.67;;
40621;SDS011;26324;52.040;11.528;2023-05-10T08:14:01;5.18;;;2.58;;
40621;SDS011;26324;52.040;11.528;2023-05-10T08:16:29;5.88;;;2.70;;
40621;SDS011;26324;52.040;11.528;2023-05-10T08:18:56;3.22;;;2.42;;
40621;SDS011;26324;52.040;11.528;2023-05-10T08:21:24;5.22;;;2.42;;
40621;SDS011;26324;52.040;11.528;2023-05-10T08:23:51;5.93;;;2.50;;
40621;SDS011;26324;52.040;11.528;2023-05-10T08:26:18;5.35;;;2.80;;
40621;SDS011;26324;52.040;11.528;2023-05-10T08:28:45;7.95;;;2.67;;
40621;SDS011;26324;52.040;11.528;2023-05-10T08:31:13;5.47;;;2.88;;
40621;SDS011;26324;52.040;11.528;2023-05-10T08:33:40;3.47;;;2.45;;
40621;SDS011;26324;52.040;11.528;2023-05-10T08:36:10;4.93;;;2.90;;
40621;SDS011;26324;52.040;11.528;2023-05-10T08:38:37;5.03;;;2.65;;
40621;SDS011;26324;52.040;11.528;2023-05-10T08:41:05;4.90;;;2.78;;
40621;SDS011;26324;52.040;11.528;2023-05-10T08:43:33;4.72;;;2.85;;
40621;SDS011;26324;52.040;11.528;2023-05-10T08:46:03;5.32;;;2.78;;
40621;SDS011;26324;52.040;11.528;2023-05-10T08:48:32;3.88;;;2.53;;
40621;SDS011;26324;52.040;11.528;2023-05-10T08:51:01;4.47;;;2.63;;
40621;SDS011;26324;52.040;11.528;2023-05-10T08:53:30;7.00;;;2.50;;
40621;SDS011;26324;52.040;11.528;2023-05-10T08:56:00;3.80;;;2.83;;
40621;SDS011;26324;52.040;11.528;2023-05-10T08:58:28;4.68;;;2.80;;
40621;SDS011;26324;52.040;11.528;2023-05-10T09:00:55;4.93;;;3.10;;
40621;SDS011;26324;52.040;11.528;2023-05-10T09:03:23;7.65;;;2.80;;
40621;SDS011;26324;52.040;11.528;2023-05-10T09:05:50;6.47;;;2.60;;
40621;SDS011;26324;52.040;11.528;2023-05-10T09:08:18;4.30;;;2.90;;
40621;SDS011;26324;52.040;11.528;2023-05-10T09:10:46;5.38;;;3.10;;
40621;SDS011;26324;52.040;11.528;2023-05-10T09:13:15;4.10;;;2.83;;
40621;SDS011;26324;52.040;11.528;2023-05-10T09:15:43;5.00;;;2.78;;
40621;SDS011;26324;52.040;11.528;2023-05-10T09:18:11;4.13;;;3.00;;
40621;SDS011;26324;52.040;11.528;2023-05-10T09:20:40;6.15;;;3.00;;
40621;SDS011;26324;52.040;11.528;2023-05-10T09:23:07;5.05;;;2.80;;
40621;SDS011;26324;52.040;11.528;2023-05-10T09:25:35;4.68;;;2.72;;
40621;SDS011;26324;52.040;11.528;2023-05-10T09:28:05;6.47;;;2.97;;
40621;SDS011;26324;52.040;11.528;2023-05-10T09:30:35;3.97;;;2.63;;
40621;SDS011;26324;52.040;11.528;2023-05-10T09:33:02;4.28;;;2.75;;
40621;SDS011;26324;52.040;11.528;2023-05-10T09:35:31;5.03;;;2.50;;
40621;SDS011;26324;52.040;11.528;2023-05-10T09:38:01;5.25;;;3.13;;
40621;SDS011;26324;52.040;11.528;2023-05-10T09:40:30;6.60;;;3.55;;
40621;SDS011;26324;52.040;11.528;2023-05-10T09:42:59;6.78;;;3.17;;
40621;SDS011;26324;52.040;11.528;2023-05-10T09:45:29;5.57;;;2.88;;
40621;SDS011;26324;52.040;11.528;2023-05-10T09:47:57;4.43;;;2.75;;
40621;SDS011;26324;52.040;11.528;2023-05-10T09:50:26;4.22;;;2.80;;
40621;SDS011;26324;52.040;11.528;2023-05-10T09:52:58;6.97;;;3.65;;
40621;SDS011;26324;52.040;11.528;2023-05-10T09:58:07;5.10;;;3.10;;
40621;SDS011;26324;52.040;11.528;2023-05-10T10:00:42;5.57;;;2.78;;
40621;SDS011;26324;52.040;11.528;2023-05-10T10:03:17;6.15;;;3.45;;
40621;SDS011;26324;52.040;11.528;2023-05-10T10:05:46;4.55;;;3.28;;
40621;SDS011;26324;52.040;11.528;2023-05-10T10:10:42;6.70;;;3.80;;
40621;SDS011;26324;52.040;11.528;2023-05-10T10:13:13;7.55;;;4.07;;
40621;SDS011;26324;52.040;11.528;2023-05-10T10:15:40;4.78;;;3.60;;
40621;SDS011;26324;52.040;11.528;2023-05-10T10:18:13;6.13;;;3.45;;
40621;SDS011;26324;52.040;11.528;2023-05-10T10:20:42;4.70;;;3.25;;
40621;SDS011;26324;52.040;11.528;2023-05-10T10:23:09;6.40;;;3.65;;
40621;SDS011;26324;52.040;11.528;2023-05-10T10:25:37;6.18;;;3.05;;
40621;SDS011;26324;52.040;11.528;2023-05-10T10:28:09;5.13;;;3.20;;
40621;SDS011;26324;52.040;11.528;2023-05-10T10:30:53;9.80;;;3.70;;
40621;SDS011;26324;52.040;11.528;2023-05-10T10:36:23;5.35;;;3.35;;
40621;SDS011;26324;52.040;11.528;2023-05-10T10:41:36;4.60;;;3.60;;
40621;SDS011;26324;52.040;11.528;2023-05-10T10:44:54;5.68;;;3.75;;
40621;SDS011;26324;52.040;11.528;2023-05-10T10:49:43;6.15;;;3.72;;
40621;SDS011;26324;52.040;11.528;2023-05-10T10:52:20;5.40;;;3.22;;
40621;SDS011;26324;52.040;11.528;2023-05-10T10:55:10;5.03;;;3.50;;
40621;SDS011;26324;52.040;11.528;2023-05-10T10:57:49;8.77;;;4.07;;
40621;SDS011;26324;52.040;11.528;2023-05-10T11:00:31;7.97;;;4.38;;
40621;SDS011;26324;52.040;11.528;2023-05-10T11:03:04;9.43;;;4.60;;
40621;SDS011;26324;52.040;11.528;2023-05-10T11:05:41;8.23;;;4.25;;
40621;SDS011;26324;52.040;11.528;2023-05-10T11:08:13;7.28;;;4.15;;
40621;SDS011;26324;52.040;11.528;2023-05-10T11:16:11;8.73;;;4.32;;
40621;SDS011;26324;52.040;11.528;2023-05-10T11:21:31;8.15;;;4.40;;
40621;SDS011;26324;52.040;11.528;2023-05-10T11:24:00;7.13;;;4.38;;
40621;SDS011;26324;52.040;11.528;2023-05-10T11:26:33;7.43;;;4.22;;
40621;SDS011;26324;52.040;11.528;2023-05-10T11:29:01;6.90;;;3.83;;
40621;SDS011;26324;52.040;11.528;2023-05-10T11:31:31;5.63;;;3.90;;
40621;SDS011;26324;52.040;11.528;2023-05-10T11:33:59;5.82;;;3.72;;
40621;SDS011;26324;52.040;11.528;2023-05-10T11:36:33;7.20;;;4.10;;
40621;SDS011;26324;52.040;11.528;2023-05-10T11:39:02;6.00;;;4.50;;
40621;SDS011;26324;52.040;11.528;2023-05-10T11:41:30;7.93;;;4.88;;
40621;SDS011;26324;52.040;11.528;2023-05-10T11:43:58;9.70;;;4.65;;
40621;SDS011;26324;52.040;11.528;2023-05-10T11:46:27;6.03;;;3.83;;
40621;SDS011;26324;52.040;11.528;2023-05-10T11:48:59;5.63;;;3.88;;
40621;SDS011;26324;52.040;11.528;2023-05-10T11:51:28;7.32;;;4.18;;
40621;SDS011;26324;52.040;11.528;2023-05-10T11:53:56;5.30;;;4.10;;
40621;SDS011;26324;52.040;11.528;2023-05-10T11:56:24;6.15;;;4.05;;
40621;SDS011;26324;52.040;11.528;2023-05-10T11:58:53;7.88;;;4.15;;
40621;SDS011;26324;52.040;11.528;2023-05-10T12:01:25;6.55;;;4.47;;
40621;SDS011;26324;52.040;11.528;2023-05-10T12:03:54;6.03;;;3.80;;
40621;SDS011;26324;52.040;11.528;2023-05-10T12:06:26;4.68;;;3.55;;
40621;SDS011;26324;52.040;11.528;2023-05-10T12:08:55;5.88;;;3.05;;
40621;SDS011;26324;52.040;11.528;2023-05-10T12:11:27;4.82;;;3.55;;
40621;SDS011;26324;52.040;11.528;2023-05-10T12:13:55;4.60;;;3.00;;
40621;SDS011;26324;52.040;11.528;2023-05-10T12:16:28;4.30;;;2.42;;
40621;SDS011;26324;52.040;11.528;2023-05-10T12:18:57;3.10;;;2.80;;
40621;SDS011;26324;52.040;11.528;2023-05-10T12:21:27;3.72;;;2.65;;
40621;SDS011;26324;52.040;11.528;2023-05-10T12:24:03;3.75;;;2.40;;
40621;SDS011;26324;52.040;11.528;2023-05-10T12:26:32;4.03;;;2.67;;
40621;SDS011;26324;52.040;11.528;2023-05-10T12:29:12;2.95;;;2.35;;
40621;SDS011;26324;52.040;11.528;2023-05-10T12:31:53;1.83;;;1.17;;
40621;SDS011;26324;52.040;11.528;2023-05-10T12:34:25;2.08;;;1.30;;
40621;SDS011;26324;52.040;11.528;2023-05-10T12:37:00;1.40;;;0.93;;
40621;SDS011;26324;52.040;11.528;2023-05-10T12:39:41;2.03;;;1.08;;
40621;SDS011;26324;52.040;11.528;2023-05-10T12:42:12;1.70;;;0.90;;
40621;SDS011;26324;52.040;11.528;2023-05-10T12:44:39;0.95;;;0.65;;
40621;SDS011;26324;52.040;11.528;2023-05-10T12:47:07;1.17;;;0.60;;
40621;SDS011;26324;52.040;11.528;2023-05-10T12:49:34;1.05;;;0.63;;
40621;SDS011;26324;52.040;11.528;2023-05-10T12:52:02;1.60;;;0.93;;
40621;SDS011;26324;52.040;11.528;2023-05-10T12:54:29;1.02;;;0.60;;
40621;SDS011;26324;52.040;11.528;2023-05-10T12:56:56;1.25;;;0.70;;
40621;SDS011;26324;52.040;11.528;2023-05-10T12:59:24;1.55;;;1.00;;
40621;SDS011;26324;52.040;11.528;2023-05-10T13:01:51;2.05;;;1.10;;
40621;SDS011;26324;52.040;11.528;2023-05-10T13:04:19;2.53;;;1.15;;
40621;SDS011;26324;52.040;11.528;2023-05-10T13:06:46;1.98;;;1.33;;
40621;SDS011;26324;52.040;11.528;2023-05-10T13:09:13;1.73;;;1.10;;
40621;SDS011;26324;52.040;11.528;2023-05-10T13:11:41;1.63;;;1.15;;
40621;SDS011;26324;52.040;11.528;2023-05-10T13:14:09;2.03;;;1.30;;
40621;SDS011;26324;52.040;11.528;2023-05-10T13:16:36;1.50;;;1.08;;
40621;SDS011;26324;52.040;11.528;2023-05-10T13:19:03;1.55;;;1.25;;
40621;SDS011;26324;52.040;11.528;2023-05-10T13:21:31;1.88;;;1.25;;
40621;SDS011;26324;52.040;11.528;2023-05-10T13:23:58;1.88;;;1.20;;
40621;SDS011;26324;52.040;11.528;2023-05-10T13:26:26;2.72;;;1.50;;
40621;SDS011;26324;52.040;11.528;2023-05-10T13:28:54;2.67;;;1.27;;
40621;SDS011;26324;52.040;11.528;2023-05-10T13:31:22;2.72;;;1.58;;
40621;SDS011;26324;52.040;11.528;2023-05-10T13:33:50;2.08;;;1.58;;
40621;SDS011;26324;52.040;11.528;2023-05-10T13:36:17;2.15;;;1.60;;
40621;SDS011;26324;52.040;11.528;2023-05-10T13:38:44;2.75;;;1.80;;
40621;SDS011;26324;52.040;11.528;2023-05-10T13:41:12;2.42;;;1.85;;
40621;SDS011;26324;52.040;11.528;2023-05-10T13:43:39;3.58;;;1.67;;
40621;SDS011;26324;52.040;11.528;2023-05-10T13:46:06;4.00;;;1.98;;
40621;SDS011;26324;52.040;11.528;2023-05-10T13:48:34;2.65;;;1.65;;
40621;SDS011;26324;52.040;11.528;2023-05-10T13:51:04;2.22;;;1.52;;
40621;SDS011;26324;52.040;11.528;2023-05-10T13:53:32;3.38;;;2.03;;
40621;SDS011;26324;52.040;11.528;2023-05-10T13:55:59;4.53;;;1.90;;
40621;SDS011;26324;52.040;11.528;2023-05-10T13:58:27;4.22;;;2.67;;
40621;SDS011;26324;52.040;11.528;2023-05-10T14:00:54;4.35;;;2.88;;
40621;SDS011;26324;52.040;11.528;2023-05-10T14:03:22;5.90;;;2.90;;
40621;SDS011;26324;52.040;11.528;2023-05-10T14:05:49;5.40;;;3.20;;
40621;SDS011;26324;52.040;11.528;2023-05-10T14:08:17;5.25;;;3.50;;
40621;SDS011;26324;52.040;11.528;2023-05-10T14:10:44;5.38;;;3.50;;
40621;SDS011;26324;52.040;11.528;2023-05-10T14:13:11;5.45;;;3.65;;
40621;SDS011;26324;52.040;11.528;2023-05-10T14:15:39;5.82;;;3.95;;
40621;SDS011;26324;52.040;11.528;2023-05-10T14:18:06;5.70;;;3.90;;
40621;SDS011;26324;52.040;11.528;2023-05-10T14:20:33;5.07;;;3.60;;
40621;SDS011;26324;52.040;11.528;2023-05-10T14:23:01;6.38;;;3.83;;
40621;SDS011;26324;52.040;11.528;2023-05-10T14:25:28;7.70;;;3.90;;
40621;SDS011;26324;52.040;11.528;2023-05-10T14:27:55;5.47;;;3.83;;
40621;SDS011;26324;52.040;11.528;2023-05-10T14:30:22;5.10;;;3.65;;
40621;SDS011;26324;52.040;11.528;2023-05-10T14:32:50;5.07;;;3.85;;
40621;SDS011;26324;52.040;11.528;2023-05-10T14:35:17;5.50;;;4.32;;
40621;SDS011;26324;52.040;11.528;2023-05-10T14:37:45;5.47;;;3.40;;
40621;SDS011;26324;52.040;11.528;2023-05-10T14:40:13;5.65;;;3.78;;
40621;SDS011;26324;52.040;11.528;2023-05-10T14:42:42;5.65;;;3.42;;
40621;SDS011;26324;52.040;11.528;2023-05-10T14:45:09;5.43;;;3.67;;
40621;SDS011;26324;52.040;11.528;2023-05-10T14:47:38;5.50;;;3.83;;
40621;SDS011;26324;52.040;11.528;2023-05-10T14:50:06;5.75;;;3.67;;
40621;SDS011;26324;52.040;11.528;2023-05-10T14:52:33;6.13;;;4.20;;
40621;SDS011;26324;52.040;11.528;2023-05-10T14:55:01;5.10;;;3.60;;
40621;SDS011;26324;52.040;11.528;2023-05-10T14:57:29;4.95;;;3.45;;
40621;SDS011;26324;52.040;11.528;2023-05-10T14:59:56;5.70;;;3.65;;
40621;SDS011;26324;52.040;11.528;2023-05-10T15:02:24;4.68;;;3.35;;
40621;SDS011;26324;52.040;11.528;2023-05-10T15:04:52;5.80;;;3.40;;
40621;SDS011;26324;52.040;11.528;2023-05-10T15:07:19;5.03;;;3.50;;
40621;SDS011;26324;52.040;11.528;2023-05-10T15:09:47;5.25;;;3.28;;
40621;SDS011;26324;52.040;11.528;2023-05-10T15:12:14;5.05;;;3.20;;
40621;SDS011;26324;52.040;11.528;2023-05-10T15:14:41;4.05;;;3.50;;
40621;SDS011;26324;52.040;11.528;2023-05-10T15:17:08;4.22;;;3.20;;
40621;SDS011;26324;52.040;11.528;2023-05-10T15:19:36;4.35;;;3.10;;
40621;SDS011;26324;52.040;11.528;2023-05-10T15:22:04;4.00;;;3.05;;
40621;SDS011;26324;52.040;11.528;2023-05-10T15:24:31;3.60;;;3.05;;
40621;SDS011;26324;52.040;11.528;2023-05-10T15:26:58;3.80;;;2.80;;
40621;SDS011;26324;52.040;11.528;2023-05-10T15:29:26;3.40;;;2.58;;